USTRANSCOM 7525


TBPB
Grantley Adams International Airport
Bridgetown, BB
FHAW
RAF Ascension Island
Ascension Island, SH

Activity Log

Date Flight Route Aircraft Duration
06/03/2019 CMB825 BGI ROVBA ASALI UL695 EGIMI UL695 FHAW B752 6h 25m

Route Details

Aircraft Information
Primary: Boeing 757-200SF
Backup: Not Available
Route Data
Distance: 2971nm
Sched. Duration: 7h 15m
Avg. Duration: 6h 25m (-90m)
Times Flown: 1
Recm'd Route: BGI ROVBA ASALI UL695 EGIMI UL695 FHAW
Planned Altitude: 31,000ft
Origin Wx: TBPB 271700Z 12010KT 9999 -SHRA VCSH BKN016 SCT032 29/21 Q1015 NOSIG
Dest. Wx:
Notes: USTRANSCOM CONTRACT FLIGHT | PAYLOAD RESTRICTED | ETOPS

Financial History
Total Freight: 45,594lbs
Average Load: 45,594lbs/flt
Fuel Used: 54,477lbs
Avg. Fuel Used: 54,477lbs/flt
Fuel Expense: $33,776
Avg. Fuel Expense: $33,776
Avg. Fuel Cost: $0.62/lbs
Total Gross Income: $122,648
Pilot Pay: $229
Total Expenses: $13,298
Total Revenue: $74,041
Average Revenue: $122,647.86